Time;durP1;ratioP1;P1;durP2;ratioP2;P2;SDS_P1;SDS_P2;PMS_P1;PMS_P2;Temp;Humidity;BMP_temperature;BMP_pressure;BME280_temperature;BME280_humidity;BME280_pressure;Samples;Min_cycle;Max_cycle;Signal;HPM_P1;HPM_P2
2022/05/10 00:00:32;;;;;;;62.55;50.40;;;20.80;62.40;;;;;;4939437;28;87232;-35
2022/05/10 00:03:01;;;;;;;61.58;50.22;;;20.80;62.40;;;;;;4944229;28;85680;-35
2022/05/10 00:05:32;;;;;;;61.47;50.47;;;20.80;62.40;;;;;;4940726;28;85738;-35
2022/05/10 00:07:58;;;;;;;;;;;20.70;62.40;;;;;;4948632;28;85908;-33
2022/05/10 00:10:24;;;;;;;60.75;50.17;;;20.80;62.40;;;;;;4939399;28;87546;-36
2022/05/10 00:12:50;;;;;;;61.47;50.78;;;20.70;62.40;;;;;;4925596;28;91069;-39
2022/05/10 00:15:16;;;;;;;61.80;50.40;;;20.70;62.50;;;;;;4939886;28;87075;-34
2022/05/10 00:17:42;;;;;;;61.22;50.13;;;20.70;62.40;;;;;;4945622;28;90658;-32
2022/05/10 00:20:13;;;;;;;61.33;50.08;;;20.70;62.40;;;;;;4944983;28;90106;-34
2022/05/10 00:22:39;;;;;;;61.97;50.27;;;20.70;62.50;;;;;;4948980;28;90306;-34
2022/05/10 00:25:08;;;;;;;61.42;49.97;;;20.70;62.50;;;;;;4943163;28;85241;-34
2022/05/10 00:27:34;;;;;;;61.15;50.05;;;20.70;62.50;;;;;;4947987;28;86389;-33
2022/05/10 00:30:00;;;;;;;61.20;50.45;;;20.60;62.50;;;;;;4946799;28;85168;-34
2022/05/10 00:32:29;;;;;;;61.47;50.55;;;20.60;62.40;;;;;;4948576;28;88053;-34
2022/05/10 00:34:54;;;;;;;61.05;50.03;;;20.60;62.40;;;;;;4947230;28;86294;-34
2022/05/10 00:37:22;;;;;;;61.08;50.40;;;20.60;62.40;;;;;;4949601;28;84883;-37
2022/05/10 00:39:48;;;;;;;60.15;50.22;;;20.60;62.40;;;;;;4941479;28;86179;-33
2022/05/10 00:42:22;;;;;;;62.05;50.75;;;20.60;62.40;;;;;;4931263;28;93269;-33
2022/05/10 00:44:55;;;;;;;61.00;50.17;;;20.60;62.40;;;;;;4942671;28;86217;-33
2022/05/10 00:47:33;;;;;;;62.05;50.53;;;20.60;62.50;;;;;;4946658;28;86249;-34
2022/05/10 00:50:08;;;;;;;62.10;50.72;;;20.60;62.50;;;;;;4942090;28;86350;-34
2022/05/10 00:52:54;;;;;;;62.17;50.95;;;20.60;62.40;;;;;;4942676;28;88403;-34
2022/05/10 00:55:37;;;;;;;62.67;50.40;;;20.50;62.30;;;;;;4954147;28;85202;-39
2022/05/10 00:58:07;;;;;;;62.25;50.97;;;20.50;62.40;;;;;;4945649;28;85674;-34
2022/05/10 01:00:33;;;;;;;61.65;50.42;;;20.50;62.30;;;;;;4939842;28;85691;-34
2022/05/10 01:03:12;;;;;;;62.47;50.83;;;20.50;62.40;;;;;;4949517;28;85990;-35
2022/05/10 01:05:44;;;;;;;60.63;50.13;;;20.50;62.40;;;;;;4945132;28;90099;-35
2022/05/10 01:08:12;;;;;;;;;;;20.50;62.50;;;;;;4952213;28;85344;-35
2022/05/10 01:10:57;;;;;;;61.80;50.63;;;20.50;62.50;;;;;;4939283;28;85588;-34
2022/05/10 01:13:34;;;;;;;60.65;50.50;;;20.40;62.40;;;;;;4941613;28;86782;-34
2022/05/10 01:16:06;;;;;;;61.05;50.20;;;20.40;62.40;;;;;;4943100;28;88115;-34
2022/05/10 01:18:33;;;;;;;61.55;50.35;;;20.40;62.30;;;;;;4945622;28;85815;-35
2022/05/10 01:21:13;;;;;;;61.92;50.45;;;20.40;62.40;;;;;;4941112;28;86576;-34
2022/05/10 01:24:06;;;;;;;60.00;50.20;;;20.40;62.30;;;;;;4942387;28;85644;-33
2022/05/10 01:27:18;;;;;;;62.70;50.40;;;20.40;62.30;;;;;;4948282;28;85357;-35
2022/05/10 01:29:51;;;;;;;59.90;50.08;;;20.40;63.10;;;;;;4944635;28;85810;-34
2022/05/10 01:35:16;;;;;;;62.13;50.83;;;20.40;62.30;;;;;;4941557;28;85632;-36
2022/05/10 01:37:47;;;;;;;59.97;50.03;;;20.40;62.30;;;;;;4946551;28;85906;-35
2022/05/10 01:40:35;;;;;;;62.40;50.95;;;20.40;62.30;;;;;;4933459;28;86732;-34
2022/05/10 01:43:19;;;;;;;60.83;50.55;;;20.40;62.30;;;;;;4928551;28;86782;-33
2022/05/10 01:45:54;;;;;;;61.80;50.55;;;20.30;62.10;;;;;;4942520;28;85608;-33
2022/05/10 01:48:21;;;;;;;61.10;49.90;;;20.40;62.30;;;;;;4950959;28;85529;-36
2022/05/10 01:50:54;;;;;;;63.10;50.78;;;20.30;62.20;;;;;;4952479;28;85550;-34
2022/05/10 01:53:24;;;;;;;62.65;51.05;;;20.30;62.10;;;;;;4952015;28;85948;-34
2022/05/10 01:55:53;;;;;;;59.90;50.35;;;20.40;62.20;;;;;;4951591;28;85728;-36
2022/05/10 01:58:27;;;;;;;61.78;50.65;;;20.30;62.10;;;;;;4948452;28;86229;-33
2022/05/10 02:00:57;;;;;;;61.67;50.65;;;20.30;62.10;;;;;;4946746;28;85543;-37
2022/05/10 02:03:38;;;;;;;60.53;50.22;;;20.40;62.10;;;;;;4946073;28;87600;-34
2022/05/10 02:06:27;;;;;;;;;;;20.30;62.00;;;;;;4951157;28;85035;-33
2022/05/10 02:09:09;;;;;;;60.40;50.40;;;20.30;62.00;;;;;;4953684;28;84858;-35
2022/05/10 02:11:40;;;;;;;60.13;50.30;;;20.30;62.00;;;;;;4931367;28;86725;-33
2022/05/10 02:14:29;;;;;;;61.40;50.67;;;20.30;61.90;;;;;;4938987;28;85188;-36
2022/05/10 02:17:05;;;;;;;60.95;50.20;;;20.30;61.90;;;;;;4940144;28;87737;-35
2022/05/10 02:19:42;;;;;;;62.22;50.83;;;20.40;62.00;;;;;;4940672;28;85653;-35
2022/05/10 02:22:12;;;;;;;60.95;50.25;;;20.30;61.80;;;;;;4936973;28;86517;-33
2022/05/10 02:24:45;;;;;;;60.53;50.55;;;20.30;61.80;;;;;;4944997;28;85883;-36
2022/05/10 02:27:22;;;;;;;61.17;50.53;;;20.30;61.80;;;;;;4950545;28;92766;-33
2022/05/10 02:29:51;;;;;;;60.00;50.38;;;20.30;61.80;;;;;;4946804;28;85877;-35
2022/05/10 02:35:10;;;;;;;59.70;50.28;;;20.30;61.80;;;;;;4944105;28;89759;-34
2022/05/10 02:37:36;;;;;;;60.90;50.80;;;20.30;61.70;;;;;;4947350;28;86579;-34
2022/05/10 02:40:03;;;;;;;60.22;50.15;;;20.30;61.80;;;;;;4940959;28;86020;-35
2022/05/10 02:42:30;;;;;;;60.47;50.20;;;20.30;61.70;;;;;;4921093;28;86863;-33
2022/05/10 02:44:56;;;;;;;60.35;50.15;;;20.30;61.70;;;;;;4945662;28;85994;-33
2022/05/10 02:47:35;;;;;;;60.35;50.30;;;20.30;61.70;;;;;;4947588;28;86009;-34
2022/05/10 02:50:01;;;;;;;60.20;50.22;;;20.30;61.60;;;;;;4949868;28;85566;-34
2022/05/10 02:52:27;;;;;;;60.03;50.25;;;20.30;61.70;;;;;;4946142;28;85370;-35
2022/05/10 02:55:08;;;;;;;60.45;49.92;;;20.30;61.60;;;;;;4943702;28;86819;-37
2022/05/10 02:57:34;;;;;;;60.50;50.20;;;20.30;61.60;;;;;;4943891;28;85624;-33
2022/05/10 03:00:04;;;;;;;60.47;50.10;;;20.30;62.20;;;;;;4942317;28;86278;-36
2022/05/10 03:02:35;;;;;;;59.70;50.00;;;20.30;61.60;;;;;;4944016;28;86868;-34
2022/05/10 03:05:00;;;;;;;59.63;50.50;;;20.30;61.50;;;;;;4940269;28;86299;-33
2022/05/10 03:07:27;;;;;;;59.25;49.97;;;20.30;61.50;;;;;;4950051;28;85403;-33
2022/05/10 03:09:53;;;;;;;61.53;50.30;;;20.30;61.50;;;;;;4938737;28;85606;-34
2022/05/10 03:12:19;;;;;;;60.63;50.45;;;20.30;61.30;;;;;;4927784;28;85783;-37
2022/05/10 03:14:45;;;;;;;59.47;50.05;;;20.30;61.50;;;;;;4946076;28;85600;-33
2022/05/10 03:17:12;;;;;;;61.30;50.22;;;20.30;61.40;;;;;;4945555;28;88275;-35
2022/05/10 03:19:41;;;;;;;60.40;50.20;;;20.30;61.40;;;;;;4942808;28;86266;-35
2022/05/10 03:22:08;;;;;;;59.47;49.95;;;20.30;61.40;;;;;;4940558;28;85171;-35
2022/05/10 03:24:34;;;;;;;61.13;50.10;;;20.30;61.30;;;;;;4945603;28;85322;-37
2022/05/10 03:27:02;;;;;;;60.00;50.22;;;20.30;61.30;;;;;;4942916;28;85436;-36
2022/05/10 03:29:28;;;;;;;59.10;49.97;;;20.30;61.30;;;;;;4945135;28;85162;-36
2022/05/10 03:31:54;;;;;;;61.55;50.75;;;20.30;61.30;;;;;;4946202;28;86479;-34
2022/05/10 03:37:04;;;;;;;60.42;50.15;;;20.30;61.30;;;;;;4939257;28;86346;-38
2022/05/10 03:39:30;;;;;;;60.40;50.38;;;20.20;61.20;;;;;;4943433;28;85573;-36
2022/05/10 03:41:56;;;;;;;61.13;50.45;;;20.30;61.20;;;;;;4926587;28;85824;-35
2022/05/10 03:44:21;;;;;;;60.22;50.45;;;20.30;61.10;;;;;;4931547;28;85958;-33
2022/05/10 03:46:47;;;;;;;60.35;50.03;;;20.20;61.10;;;;;;4941299;28;87516;-35
2022/05/10 03:49:14;;;;;;;60.42;50.25;;;20.30;61.10;;;;;;4951343;28;86172;-35
2022/05/10 03:51:40;;;;;;;60.78;50.58;;;20.20;61.10;;;;;;4944141;28;86073;-36
2022/05/10 03:54:06;;;;;;;59.95;50.20;;;20.20;61.10;;;;;;4943170;28;89773;-34
2022/05/10 03:56:33;;;;;;;59.47;50.60;;;20.20;61.10;;;;;;4945094;28;85653;-33
2022/05/10 03:59:00;;;;;;;59.63;50.08;;;20.20;61.00;;;;;;4950774;28;86254;-33
2022/05/10 04:01:25;;;;;;;60.85;50.47;;;20.20;61.10;;;;;;4944710;28;86039;-35
2022/05/10 04:03:51;;;;;;;59.47;50.47;;;20.20;61.10;;;;;;4934488;28;86333;-34
2022/05/10 04:06:18;;;;;;;60.10;49.97;;;20.20;61.10;;;;;;4941158;28;85970;-36
2022/05/10 04:08:45;;;;;;;59.75;50.28;;;20.20;61.10;;;;;;4945478;28;91682;-34
2022/05/10 04:11:12;;;;;;;59.95;50.30;;;20.20;61.10;;;;;;4932904;28;91244;-35
2022/05/10 04:13:40;;;;;;;59.88;50.45;;;20.20;61.00;;;;;;4930197;28;87318;-34
2022/05/10 04:16:06;;;;;;;58.97;49.75;;;20.20;61.00;;;;;;4937323;28;85490;-34
2022/05/10 04:18:32;;;;;;;59.65;50.25;;;20.30;61.10;;;;;;4947987;28;85613;-33
2022/05/10 04:20:58;;;;;;;60.10;50.50;;;20.20;60.90;;;;;;4950081;28;86333;-33
2022/05/10 04:23:24;;;;;;;59.35;50.25;;;20.20;61.60;;;;;;4938951;28;85987;-36
2022/05/10 04:25:50;;;;;;;60.00;50.67;;;20.20;60.90;;;;;;4946404;28;85548;-36
2022/05/10 04:28:16;;;;;;;60.22;50.58;;;20.20;60.90;;;;;;4946164;28;86196;-35
2022/05/10 04:30:42;;;;;;;59.95;50.28;;;20.20;60.80;;;;;;4947448;28;85568;-35
2022/05/10 04:33:07;;;;;;;59.65;50.45;;;20.20;60.90;;;;;;4950086;28;89430;-34
2022/05/10 04:35:33;;;;;;;59.60;50.03;;;20.20;60.90;;;;;;4948344;28;86200;-35
2022/05/10 04:38:08;;;;;;;60.17;50.08;;;20.20;60.80;;;;;;4949097;28;85870;-34
2022/05/10 04:43:18;;;;;;;59.55;50.10;;;20.20;60.80;;;;;;4932985;28;90956;-33
2022/05/10 04:45:45;;;;;;;59.95;50.42;;;20.20;60.80;;;;;;4948825;28;85174;-35
2022/05/10 04:48:10;;;;;;;61.28;50.47;;;20.20;60.80;;;;;;4953190;28;89047;-34
2022/05/10 04:50:36;;;;;;;60.47;50.65;;;20.20;60.70;;;;;;4950044;28;89387;-34
2022/05/10 04:53:02;;;;;;;60.80;50.40;;;20.20;60.70;;;;;;4941889;28;88931;-37
2022/05/10 04:55:28;;;;;;;60.20;50.65;;;20.20;60.60;;;;;;4949429;28;85989;-35
2022/05/10 04:57:53;;;;;;;61.15;50.63;;;20.20;60.70;;;;;;4949302;28;88031;-37
2022/05/10 05:00:20;;;;;;;59.33;50.25;;;20.20;60.60;;;;;;4940697;28;85212;-32
2022/05/10 05:02:46;;;;;;;59.53;50.38;;;20.20;60.60;;;;;;4934303;28;86727;-33
2022/05/10 05:05:13;;;;;;;59.80;50.10;;;20.20;60.70;;;;;;4943835;28;85785;-34
2022/05/10 05:07:39;;;;;;;59.95;50.35;;;20.20;60.60;;;;;;4952558;28;85705;-35
2022/05/10 05:10:06;;;;;;;59.97;50.63;;;20.30;60.50;;;;;;4950709;28;85329;-33
2022/05/10 05:12:32;;;;;;;61.03;51.00;;;20.30;60.40;;;;;;4943109;28;86958;-35
2022/05/10 05:15:03;;;;;;;61.65;51.40;;;20.30;60.40;;;;;;4950130;28;86061;-33
2022/05/10 05:17:29;;;;;;;65.47;51.47;;;20.30;60.30;;;;;;4946514;28;86471;-36
2022/05/10 05:19:55;;;;;;;62.67;51.25;;;20.30;60.30;;;;;;4940743;28;85621;-33
2022/05/10 05:22:20;;;;;;;62.15;51.25;;;20.30;60.40;;;;;;4949099;28;86374;-34
2022/05/10 05:24:46;;;;;;;61.65;51.17;;;20.30;60.20;;;;;;4934585;28;86885;-33
2022/05/10 05:27:12;;;;;;;61.83;50.72;;;20.30;60.20;;;;;;4944913;28;85407;-34
2022/05/10 05:29:37;;;;;;;62.50;51.50;;;20.30;60.40;;;;;;4940478;28;89752;-35
2022/05/10 05:32:08;;;;;;;62.17;50.75;;;20.30;60.10;;;;;;4948104;28;86422;-34
2022/05/10 05:34:35;;;;;;;63.63;51.43;;;20.40;60.10;;;;;;4949318;28;85785;-36
2022/05/10 05:39:45;;;;;;;62.60;51.42;;;20.40;60.00;;;;;;4939284;28;88520;-34
2022/05/10 05:42:11;;;;;;;62.17;51.08;;;20.40;59.80;;;;;;4933661;28;87306;-35
2022/05/10 05:44:37;;;;;;;64.93;52.08;;;20.40;59.90;;;;;;4940729;28;86459;-33
2022/05/10 05:47:02;;;;;;;62.15;51.55;;;20.40;59.90;;;;;;4947681;28;86101;-36
2022/05/10 05:49:28;;;;;;;62.47;51.72;;;20.40;59.80;;;;;;4949926;28;87090;-34
2022/05/10 05:51:57;;;;;;;65.00;52.08;;;20.50;59.80;;;;;;4947910;28;86437;-33
2022/05/10 05:54:23;;;;;;;62.83;52.03;;;20.50;59.70;;;;;;4944237;28;87915;-33
2022/05/10 05:56:49;;;;;;;64.32;52.13;;;20.50;59.60;;;;;;4956212;28;85356;-33
2022/05/10 05:59:15;;;;;;;66.18;52.03;;;20.50;59.50;;;;;;4949807;28;85043;-34
2022/05/10 06:01:41;;;;;;;65.63;51.83;;;20.60;59.50;;;;;;4948029;28;85588;-34
2022/05/10 06:04:06;;;;;;;65.32;52.63;;;20.60;59.40;;;;;;4950925;28;85122;-33
2022/05/10 06:06:32;;;;;;;67.80;51.78;;;20.60;59.10;;;;;;4949501;28;85725;-36
2022/05/10 06:08:57;;;;;;;64.25;52.60;;;20.60;59.10;;;;;;4949233;28;85519;-34
2022/05/10 06:11:23;;;;;;;65.85;52.42;;;20.70;59.10;;;;;;4942841;28;86876;-33
2022/05/10 06:13:49;;;;;;;65.03;51.85;;;20.70;59.00;;;;;;4936119;28;86572;-34
2022/05/10 06:16:14;;;;;;;64.57;52.78;;;20.80;58.90;;;;;;4947109;28;85531;-34
2022/05/10 06:18:42;;;;;;;66.95;52.53;;;20.80;58.70;;;;;;4947034;28;85731;-34
2022/05/10 06:21:07;;;;;;;67.10;52.85;;;20.90;58.60;;;;;;4951578;28;85460;-36
2022/05/10 06:23:33;;;;;;;65.18;52.20;;;20.90;58.40;;;;;;4939331;28;86584;-36
2022/05/10 06:25:58;;;;;;;64.80;52.45;;;21.00;59.00;;;;;;4943508;28;85573;-34
2022/05/10 06:28:24;;;;;;;65.90;52.53;;;21.00;58.20;;;;;;4945923;28;85849;-34
2022/05/10 06:30:50;;;;;;;65.82;52.83;;;21.10;58.10;;;;;;4945768;28;86193;-33
2022/05/10 06:33:16;;;;;;;65.43;52.92;;;21.10;58.10;;;;;;4951475;28;85543;-33
2022/05/10 06:35:44;;;;;;;66.95;52.55;;;21.10;58.00;;;;;;4948643;28;86234;-33
2022/05/10 06:38:28;;;;;;;65.43;52.80;;;21.10;58.00;;;;;;4947223;28;86000;-33
2022/05/10 06:41:01;;;;;;;65.20;53.03;;;21.20;57.90;;;;;;4944475;28;86123;-34
2022/05/10 06:43:28;;;;;;;68.75;52.65;;;21.10;57.80;;;;;;4937420;28;86730;-34
2022/05/10 06:45:57;;;;;;;65.30;52.45;;;21.10;57.80;;;;;;4946193;28;85664;-34
2022/05/10 06:48:24;;;;;;;66.30;52.78;;;21.20;57.80;;;;;;4943216;28;85669;-35
2022/05/10 06:50:50;;;;;;;65.68;52.65;;;21.20;57.70;;;;;;4947985;28;86551;-33
2022/05/10 06:53:16;;;;;;;66.10;52.80;;;21.20;58.30;;;;;;4953319;28;85497;-34
2022/05/10 06:55:42;;;;;;;66.40;52.72;;;21.20;57.60;;;;;;4944541;28;88955;-33
2022/05/10 06:58:08;;;;;;;69.03;52.92;;;21.20;57.60;;;;;;4955583;28;85201;-33
2022/05/10 07:00:37;;;;;;;65.18;52.92;;;21.30;57.60;;;;;;4950337;28;85703;-35
2022/05/10 07:03:05;;;;;;;65.78;52.55;;;21.30;57.50;;;;;;4948633;28;85204;-34
2022/05/10 07:05:31;;;;;;;66.75;53.00;;;21.30;57.40;;;;;;4947417;28;87414;-32
2022/05/10 07:07:57;;;;;;;69.38;53.22;;;21.30;57.40;;;;;;4949016;28;87874;-35
2022/05/10 07:10:22;;;;;;;66.43;52.78;;;21.30;57.40;;;;;;4942376;28;88046;-33
2022/05/10 07:12:48;;;;;;;67.95;53.15;;;21.30;57.30;;;;;;4946377;28;85560;-36
2022/05/10 07:15:17;;;;;;;66.38;52.90;;;21.30;57.30;;;;;;4933750;28;85558;-34
2022/05/10 07:17:43;;;;;;;65.32;52.85;;;21.30;57.40;;;;;;4951961;28;87150;-33
2022/05/10 07:20:11;;;;;;;67.78;53.15;;;21.40;57.40;;;;;;4943488;28;86675;-34
2022/05/10 07:22:37;;;;;;;66.80;53.03;;;21.40;57.30;;;;;;4954719;28;85850;-35
2022/05/10 07:25:03;;;;;;;67.60;52.95;;;21.40;57.20;;;;;;4945087;28;88222;-34
2022/05/10 07:27:29;;;;;;;68.25;52.90;;;21.40;57.20;;;;;;4948516;28;85711;-33
2022/05/10 07:29:54;;;;;;;68.47;53.30;;;21.50;57.30;;;;;;4950077;28;85024;-34
2022/05/10 07:32:21;;;;;;;69.07;53.55;;;21.40;57.20;;;;;;4949084;28;87841;-36
2022/05/10 07:34:47;;;;;;;65.75;53.17;;;21.50;57.20;;;;;;4953409;28;85266;-34
2022/05/10 07:37:13;;;;;;;66.63;53.05;;;21.50;57.20;;;;;;4947769;28;88333;-35
2022/05/10 07:39:39;;;;;;;66.38;53.30;;;21.50;57.10;;;;;;4940305;28;86077;-34
2022/05/10 07:42:05;;;;;;;65.22;52.83;;;21.50;57.10;;;;;;4946062;28;85985;-34
2022/05/10 07:44:32;;;;;;;67.18;52.90;;;21.50;57.00;;;;;;4938662;28;87625;-38
2022/05/10 07:46:58;;;;;;;65.18;52.83;;;21.50;57.00;;;;;;4935910;28;89429;-34
2022/05/10 07:49:24;;;;;;;66.90;53.15;;;21.50;57.00;;;;;;4950305;28;86801;-33
2022/05/10 07:51:50;;;;;;;67.05;52.83;;;21.50;57.10;;;;;;4944204;28;85255;-38
2022/05/10 07:54:15;;;;;;;66.50;53.20;;;21.50;57.10;;;;;;4948437;28;85562;-34
2022/05/10 07:56:41;;;;;;;69.18;52.63;;;21.50;57.10;;;;;;4945578;28;87378;-35
2022/05/10 07:59:07;;;;;;;65.03;52.85;;;21.50;57.10;;;;;;4954005;28;86264;-35
2022/05/10 08:01:33;;;;;;;66.78;53.05;;;21.50;57.10;;;;;;4943353;28;88543;-35
2022/05/10 08:03:59;;;;;;;68.25;53.25;;;21.50;57.10;;;;;;4952581;28;85507;-36
2022/05/10 08:06:27;;;;;;;67.53;53.28;;;21.50;57.10;;;;;;4937867;28;86597;-34
2022/05/10 08:08:53;;;;;;;66.75;52.85;;;21.60;57.10;;;;;;4945523;28;88768;-35
2022/05/10 08:11:18;;;;;;;65.68;52.95;;;21.60;57.00;;;;;;4939834;28;88185;-36
2022/05/10 08:13:44;;;;;;;69.68;53.28;;;21.60;56.80;;;;;;4944009;28;85276;-34
2022/05/10 08:16:10;;;;;;;67.45;53.50;;;21.70;56.80;;;;;;4944780;28;86022;-33
2022/05/10 08:18:39;;;;;;;68.28;53.65;;;21.60;56.70;;;;;;4937293;28;85878;-36
2022/05/10 08:21:05;;;;;;;68.72;53.72;;;21.70;56.80;;;;;;4947801;28;85696;-34
2022/05/10 08:23:35;;;;;;;67.63;53.22;;;21.70;56.80;;;;;;4938845;28;87792;-33
2022/05/10 08:26:02;;;;;;;65.40;52.73;;;21.60;56.80;;;;;;4950462;28;89464;-33
2022/05/10 08:28:29;;;;;;;66.80;53.22;;;21.60;56.80;;;;;;4946352;28;86481;-33
2022/05/10 08:30:55;;;;;;;67.00;53.55;;;21.60;56.80;;;;;;4948100;28;85381;-35
2022/05/10 08:33:28;;;;;;;66.68;53.40;;;21.60;56.90;;;;;;4945894;28;85592;-33
2022/05/10 08:35:56;;;;;;;67.25;53.65;;;21.70;56.90;;;;;;4936340;28;89767;-34
2022/05/10 08:38:23;;;;;;;67.63;53.92;;;21.70;56.80;;;;;;4948863;28;85868;-33
2022/05/10 08:41:03;;;;;;;67.80;53.75;;;21.70;56.80;;;;;;4939874;28;87905;-34
2022/05/10 08:43:44;;;;;;;67.47;53.30;;;21.70;56.70;;;;;;4938113;28;87362;-37
2022/05/10 08:46:13;;;;;;;68.00;53.53;;;21.70;56.70;;;;;;4944158;28;86359;-34
2022/05/10 08:48:39;;;;;;;66.68;53.25;;;21.80;56.60;;;;;;4952467;28;85394;-36
2022/05/10 08:51:05;;;;;;;67.38;53.92;;;21.80;56.50;;;;;;4947859;28;85058;-33
2022/05/10 08:53:32;;;;;;;67.35;53.83;;;21.80;57.10;;;;;;4953235;28;85506;-33
2022/05/10 08:56:05;;;;;;;68.82;53.67;;;21.80;56.50;;;;;;4949240;28;85996;-34
2022/05/10 08:58:46;;;;;;;69.55;53.95;;;21.90;56.40;;;;;;4951010;28;86034;-34
2022/05/10 09:01:26;;;;;;;66.82;53.65;;;21.90;56.40;;;;;;4952464;28;85317;-34
2022/05/10 09:03:57;;;;;;;70.70;53.33;;;21.90;56.30;;;;;;4949827;28;88977;-36
2022/05/10 09:06:22;;;;;;;66.85;53.50;;;21.90;56.30;;;;;;4946298;28;85792;-34
2022/05/10 09:09:20;;;;;;;67.40;53.63;;;21.90;56.30;;;;;;4953868;28;86116;-35
2022/05/10 09:11:54;;;;;;;68.22;53.83;;;22.00;56.30;;;;;;4940472;28;88869;-34
2022/05/10 09:14:29;;;;;;;68.72;54.00;;;22.00;56.30;;;;;;4940031;28;88018;-35
2022/05/10 09:16:56;;;;;;;67.93;53.70;;;22.00;56.20;;;;;;4944277;28;85060;-34
2022/05/10 09:19:30;;;;;;;67.65;53.80;;;22.00;56.20;;;;;;4956734;28;85519;-33
2022/05/10 09:21:56;;;;;;;67.47;53.67;;;22.00;56.20;;;;;;4953394;28;84834;-34
2022/05/10 09:24:29;;;;;;;69.43;53.45;;;22.00;56.20;;;;;;4947881;28;84994;-35
2022/05/10 09:27:04;;;;;;;69.63;53.95;;;22.00;56.20;;;;;;4939689;28;86570;-36
2022/05/10 09:29:29;;;;;;;67.93;53.88;;;22.10;56.10;;;;;;4940085;28;86369;-35
2022/05/10 09:34:53;;;;;;;68.30;54.03;;;22.10;56.00;;;;;;4950986;28;85522;-33
2022/05/10 09:37:35;;;;;;;67.65;53.92;;;22.10;56.00;;;;;;4947447;28;85984;-34
2022/05/10 09:40:07;;;;;;;68.47;53.97;;;22.20;56.00;;;;;;4945335;28;85123;-34
2022/05/10 09:42:35;;;;;;;67.72;53.75;;;22.20;56.00;;;;;;4950252;28;86128;-34
2022/05/10 09:45:07;;;;;;;67.50;53.72;;;22.20;56.00;;;;;;4938101;28;87211;-34
2022/05/10 09:47:33;;;;;;;68.68;53.88;;;22.20;56.00;;;;;;4941222;28;88301;-36
2022/05/10 09:50:19;;;;;;;67.13;53.80;;;22.20;55.90;;;;;;4950952;28;88659;-37
2022/05/10 09:52:46;;;;;;;67.82;53.72;;;22.20;55.90;;;;;;4949581;28;85808;-34
2022/05/10 09:55:30;;;;;;;68.68;54.17;;;22.20;55.90;;;;;;4954591;28;84985;-33
2022/05/10 09:57:57;;;;;;;67.57;53.95;;;22.20;55.90;;;;;;4952930;28;87008;-34
2022/05/10 10:00:44;;;;;;;66.85;53.72;;;22.30;55.90;;;;;;4953114;28;86391;-34
2022/05/10 10:03:26;;;;;;;66.55;53.58;;;22.30;55.80;;;;;;4944987;28;86569;-34
2022/05/10 10:05:51;;;;;;;;;;;22.30;55.80;;;;;;4948911;28;85584;-34
2022/05/10 10:08:17;;;;;;;69.05;53.60;;;22.30;55.80;;;;;;4938324;28;89412;-35
2022/05/10 10:10:42;;;;;;;67.32;53.97;;;22.30;55.90;;;;;;4944350;28;85374;-33
2022/05/10 10:13:37;;;;;;;67.70;53.58;;;22.30;55.80;;;;;;4939017;28;86043;-35
2022/05/10 10:16:20;;;;;;;67.75;53.85;;;22.30;55.80;;;;;;4946684;28;86074;-37
2022/05/10 10:18:49;;;;;;;67.65;53.65;;;22.30;55.70;;;;;;4951110;28;85734;-33
2022/05/10 10:21:27;;;;;;;67.20;53.78;;;22.40;55.70;;;;;;4951655;28;85471;-34
2022/05/10 10:24:02;;;;;;;67.38;54.05;;;22.40;55.70;;;;;;4946621;28;89136;-36
2022/05/10 10:26:35;;;;;;;69.03;54.03;;;22.40;55.60;;;;;;4941536;28;86306;-33
2022/05/10 10:29:18;;;;;;;68.68;53.75;;;22.40;55.60;;;;;;4947065;28;87844;-34
2022/05/10 10:31:51;;;;;;;68.45;54.13;;;22.40;55.60;;;;;;4952577;28;87458;-34
2022/05/10 10:34:23;;;;;;;67.60;53.92;;;22.40;55.60;;;;;;4949188;28;85236;-33
2022/05/10 10:37:04;;;;;;;67.35;53.63;;;22.40;55.60;;;;;;4947340;28;87671;-34
2022/05/10 10:39:42;;;;;;;68.05;54.05;;;22.40;55.50;;;;;;4939845;28;86452;-35
2022/05/10 10:42:33;;;;;;;70.30;54.55;;;22.50;55.50;;;;;;4943699;28;88768;-35
2022/05/10 10:45:01;;;;;;;68.80;55.00;;;22.50;56.00;;;;;;4937103;28;86442;-34
2022/05/10 10:47:37;;;;;;;68.85;54.67;;;22.50;55.30;;;;;;4944274;28;85285;-34
2022/05/10 10:50:21;;;;;;;69.03;54.75;;;22.50;55.30;;;;;;4947509;28;85255;-33
2022/05/10 10:52:46;;;;;;;68.45;54.75;;;22.60;55.30;;;;;;4946455;28;85248;-34
2022/05/10 10:55:18;;;;;;;69.10;54.72;;;22.60;55.20;;;;;;4940720;28;88320;-36
2022/05/10 10:57:53;;;;;;;69.45;54.90;;;22.60;55.30;;;;;;4948893;28;87017;-34
2022/05/10 11:00:34;;;;;;;68.53;54.72;;;22.60;55.10;;;;;;4948650;28;86845;-36
2022/05/10 11:03:08;;;;;;;68.30;54.83;;;22.60;55.10;;;;;;4949519;28;86155;-36
2022/05/10 11:05:47;;;;;;;69.90;54.85;;;22.60;55.00;;;;;;4945437;28;86223;-35
2022/05/10 11:08:37;;;;;;;69.60;54.25;;;22.60;55.00;;;;;;4931975;28;86202;-35
2022/05/10 11:11:33;;;;;;;68.30;54.50;;;22.70;55.00;;;;;;4945822;28;85362;-35
2022/05/10 11:14:11;;;;;;;67.40;54.15;;;22.60;54.90;;;;;;4942181;28;86791;-33
2022/05/10 11:16:52;;;;;;;69.15;54.28;;;22.70;54.90;;;;;;4948944;28;87178;-34
2022/05/10 11:19:51;;;;;;;68.47;54.33;;;22.70;54.90;;;;;;4944417;28;88143;-33
2022/05/10 11:22:33;;;;;;;69.15;54.28;;;22.70;54.90;;;;;;4953608;28;85591;-33
2022/05/10 11:25:32;;;;;;;70.00;54.13;;;22.70;54.90;;;;;;4941383;28;87346;-34
2022/05/10 11:28:11;;;;;;;67.78;54.33;;;22.70;54.90;;;;;;4952396;28;85526;-35
2022/05/10 11:30:57;;;;;;;68.25;54.60;;;22.70;54.90;;;;;;4945180;28;85657;-34
2022/05/10 11:33:36;;;;;;;67.55;54.30;;;22.70;54.90;;;;;;4937831;28;86063;-34
2022/05/10 11:36:15;;;;;;;69.65;54.17;;;22.70;55.00;;;;;;4948655;28;86745;-34
2022/05/10 11:39:11;;;;;;;67.30;54.03;;;22.80;55.00;;;;;;4946733;28;85437;-34
2022/05/10 11:41:45;;;;;;;67.85;54.30;;;22.80;54.90;;;;;;4947200;28;85504;-33
2022/05/10 11:44:53;;;;;;;68.45;54.10;;;22.80;54.90;;;;;;4937985;28;85515;-36
2022/05/10 11:47:56;;;;;;;67.93;54.00;;;22.80;54.90;;;;;;4939144;28;89191;-37
2022/05/10 11:50:33;;;;;;;67.75;53.80;;;22.80;54.80;;;;;;4944915;28;88105;-36
2022/05/10 11:53:20;;;;;;;68.47;54.55;;;22.90;54.80;;;;;;4951560;28;86840;-33
2022/05/10 11:55:56;;;;;;;68.07;54.30;;;22.90;54.80;;;;;;4941990;28;85250;-33
2022/05/10 11:58:24;;;;;;;68.28;54.15;;;22.90;54.80;;;;;;4944763;28;86024;-34
2022/05/10 12:00:54;;;;;;;68.95;54.42;;;22.80;54.80;;;;;;4947694;28;84954;-33
2022/05/10 12:03:39;;;;;;;67.18;54.30;;;22.80;54.80;;;;;;4949398;28;85307;-33
2022/05/10 12:06:38;;;;;;;68.55;54.20;;;22.90;54.90;;;;;;4946695;28;85980;-35
2022/05/10 12:09:06;;;;;;;67.63;54.28;;;22.90;54.80;;;;;;4944454;28;85704;-34
2022/05/10 12:11:31;;;;;;;67.95;54.45;;;22.90;54.80;;;;;;4945875;28;85263;-34
2022/05/10 12:22:59;;;;;;;66.85;53.72;;;22.90;54.90;;;;;;4949681;28;85577;-33
2022/05/10 12:25:44;;;;;;;;;;;22.90;54.80;;;;;;4941457;28;85407;-34
2022/05/10 12:28:30;;;;;;;66.55;53.90;;;22.90;54.80;;;;;;4953522;28;85263;-33
2022/05/10 12:30:57;;;;;;;68.00;53.40;;;23.00;54.80;;;;;;4946359;28;88757;-33
2022/05/10 12:33:36;;;;;;;65.78;53.30;;;22.90;54.90;;;;;;4954007;28;85744;-33
2022/05/10 12:36:02;;;;;;;66.47;53.28;;;22.80;55.00;;;;;;4944107;28;85615;-33
2022/05/10 12:38:49;;;;;;;65.65;52.97;;;22.80;55.20;;;;;;4944221;28;85767;-33
2022/05/10 12:41:52;;;;;;;66.25;53.33;;;22.80;55.20;;;;;;4941693;28;86185;-36
2022/05/10 12:44:34;;;;;;;67.63;53.08;;;22.80;55.20;;;;;;4941839;28;85605;-35
2022/05/10 12:47:14;;;;;;;66.57;53.28;;;22.80;55.20;;;;;;4942819;28;86252;-37
2022/05/10 12:50:02;;;;;;;65.77;52.93;;;22.80;55.20;;;;;;4943200;28;85895;-32
2022/05/10 12:52:48;;;;;;;66.70;53.15;;;22.80;55.20;;;;;;4952341;28;87198;-33
2022/05/10 12:55:34;;;;;;;65.85;52.85;;;22.80;55.20;;;;;;4946197;28;85753;-32
2022/05/10 12:58:06;;;;;;;66.72;53.17;;;22.80;55.20;;;;;;4951530;28;85714;-35
2022/05/10 13:00:39;;;;;;;66.72;53.45;;;22.80;55.20;;;;;;4948646;28;85017;-33
2022/05/10 13:03:11;;;;;;;66.22;53.35;;;22.90;55.20;;;;;;4953834;28;85930;-35
2022/05/10 13:05:37;;;;;;;65.95;52.92;;;22.80;55.10;;;;;;4951619;28;85636;-34
2022/05/10 13:08:45;;;;;;;66.30;53.03;;;22.90;55.20;;;;;;4953995;28;85554;-33
2022/05/10 13:11:13;;;;;;;65.88;53.25;;;22.90;55.20;;;;;;4944741;28;85861;-33
2022/05/10 13:13:39;;;;;;;65.57;53.13;;;22.90;55.70;;;;;;4950202;28;85697;-34
2022/05/10 13:16:14;;;;;;;65.50;52.83;;;22.90;55.20;;;;;;4929126;28;86975;-33